Snow/Ice From: 23-10-2018 22:46 Until: 24-10-2018 08:00 warning for: Snow/Ice Level: Yellow info button
suomi:
Liikennesää: Ajokeli on huono tienpintojen jäätymisen vuoksi.

svenska:
Trafikvädret: Väglaget är dåligt p.g.a. tillfrysning av vägytor.

english:
Traffic weather warning: Bad road conditions are expected because of ice-covered roads. 


Thunder radar more information blitzortung!


Löydät sääaseman tiedot myös:

European Weather Network

Finland Weather Exchange

Weather Underground

AWEKAS



Weather Underground säähistoriasivu

Päivittäin yhteenveto Tou 29, 2017 Yksiköt:  Englantilaiset    Metriset   Molemmat
« Edellinen Päivä
Seuraava Päivä »
Päivittäin Viikoittain Kuukausittain Vuosittain Mukautettu
  Korkea: Matala: Keskiarvo:
Lämpötila: TemperatureF °F 37.4 °F 45.7 °F
Kastepiste: DewpointF °F 32.7 °F 37.9 °F
Kosteus: Humidity % 48 % 74 %
Tuulen nopeus: WindSpeedMPH mph 0.0 mph 1.4 mph
Tuulenpuuska: WindSpeedGustMPH mph - -
Tuuli:- - South
Ilmanpaine: PressureIn in 29.55 in -
Sade: 0.00 in    
Historical Graphs
 
 
Taulukkotiedot Tou 29, 2017
Aika Lämpötila Kastepiste Ilmanpaine Tuuli Tuulen nopeus Tuulenpuuska Kosteus Sademäärä (tunneittain)
TemperatureF °F DewpointF °F PressureIn in Calm     Humidity % HourlyPrecipIn in
00:00 55.2 °F 50.2 °F 29.56 in SW 2.0 mph 5.0 mph 83 % 0.00 in
00:15 54.5 °F 49.8 °F 29.55 in SSW 2.0 mph 5.0 mph 84 % 0.00 in
00:30 54.0 °F 49.5 °F 29.55 in SSW 2.0 mph 5.0 mph 85 % 0.00 in
00:45 53.2 °F 49.1 °F 29.56 in Calm   5.0 mph 86 % 0.00 in
01:00 53.1 °F 48.9 °F 29.57 in NW 1.0 mph 8.0 mph 86 % 0.00 in
01:15 52.5 °F 48.9 °F 29.58 in Calm   4.0 mph 87 % 0.00 in
01:30 52.3 °F 48.6 °F 29.59 in NNW 3.0 mph 8.0 mph 87 % 0.00 in
02:00 51.6 °F 48.4 °F 29.60 in NNW 3.0 mph 7.0 mph 89 % 0.00 in
02:15 51.4 °F 48.2 °F 29.61 in North 2.0 mph 6.0 mph 89 % 0.00 in
02:30 51.3 °F 47.8 °F 29.61 in North 2.0 mph 6.0 mph 88 % 0.00 in
02:45 50.9 °F 46.9 °F 29.62 in North 2.0 mph 7.0 mph 86 % 0.00 in
03:00 50.4 °F 45.3 °F 29.62 in North 3.0 mph 9.0 mph 83 % 0.00 in
03:15 49.6 °F 45.3 °F 29.63 in North 2.0 mph 5.0 mph 85 % 0.00 in
03:30 47.8 °F 43.9 °F 29.64 in North 3.0 mph 9.0 mph 86 % 0.00 in
03:45 46.6 °F 42.6 °F 29.65 in North 3.0 mph 7.0 mph 86 % 0.00 in
04:00 45.3 °F 41.2 °F 29.65 in North 3.0 mph 6.0 mph 85 % 0.00 in
04:15 44.2 °F 40.5 °F 29.66 in NNE 1.0 mph 4.0 mph 86 % 0.00 in
04:30 43.9 °F 39.9 °F 29.66 in North 2.0 mph 6.0 mph 86 % 0.00 in
04:45 43.2 °F 38.7 °F 29.67 in North 2.0 mph 7.0 mph 84 % 0.00 in
05:00 42.3 °F 37.8 °F 29.67 in NNE 2.0 mph 6.0 mph 84 % 0.00 in
05:15 41.5 °F 36.9 °F 29.68 in North 4.0 mph 13.0 mph 83 % 0.00 in
05:30 41.2 °F 36.3 °F 29.68 in North 3.0 mph 7.0 mph 83 % 0.00 in
05:45 40.6 °F 36.3 °F 29.69 in North 2.0 mph 6.0 mph 84 % 0.00 in
06:00 40.5 °F 36.0 °F 29.69 in North 2.0 mph 6.0 mph 84 % 0.00 in
06:15 40.3 °F 35.8 °F 29.70 in NNE 2.0 mph 6.0 mph 84 % 0.00 in
06:30 40.3 °F 35.4 °F 29.70 in North 2.0 mph 8.0 mph 83 % 0.00 in
06:45 40.1 °F 35.6 °F 29.71 in North 3.0 mph 8.0 mph 84 % 0.00 in
07:00 39.9 °F 35.8 °F 29.72 in North 2.0 mph 7.0 mph 85 % 0.00 in
07:15 40.1 °F 35.6 °F 29.72 in NNE 3.0 mph 5.0 mph 84 % 0.00 in
07:30 40.3 °F 36.1 °F 29.73 in North 2.0 mph 7.0 mph 85 % 0.00 in
07:45 40.5 °F 36.3 °F 29.73 in North 1.0 mph 5.0 mph 85 % 0.00 in
08:00 40.5 °F 36.3 °F 29.74 in North 2.0 mph 5.0 mph 85 % 0.00 in
08:15 40.6 °F 36.5 °F 29.74 in North 1.0 mph 4.0 mph 85 % 0.00 in
08:30 40.5 °F 35.8 °F 29.74 in NNE 2.0 mph 5.0 mph 83 % 0.00 in
08:45 40.1 °F 35.6 °F 29.75 in North 2.0 mph 6.0 mph 84 % 0.00 in
09:00 39.9 °F 35.4 °F 29.76 in North 2.0 mph 4.0 mph 84 % 0.00 in
09:15 40.1 °F 35.6 °F 29.76 in North 2.0 mph 7.0 mph 84 % 0.00 in
09:30 40.6 °F 36.1 °F 29.76 in North 2.0 mph 7.0 mph 84 % 0.00 in
09:45 41.2 °F 36.3 °F 29.77 in North 2.0 mph 4.0 mph 83 % 0.00 in
10:00 41.4 °F 36.3 °F 29.77 in North 2.0 mph 6.0 mph 82 % 0.00 in
10:15 41.4 °F 36.1 °F 29.78 in North 1.0 mph 5.0 mph 82 % 0.00 in
10:30 41.7 °F 36.7 °F 29.79 in North 1.0 mph 5.0 mph 82 % 0.00 in
10:45 41.5 °F 36.0 °F 29.80 in NNE 2.0 mph 5.0 mph 80 % 0.00 in
11:00 41.4 °F 36.3 °F 29.80 in North 1.0 mph 6.0 mph 82 % 0.00 in
11:15 41.9 °F 36.1 °F 29.81 in North 2.0 mph 6.0 mph 80 % 0.00 in
11:30 42.1 °F 36.0 °F 29.81 in North 2.0 mph 7.0 mph 79 % 0.00 in
11:45 42.3 °F 36.1 °F 29.83 in North 2.0 mph 6.0 mph 79 % 0.00 in
12:00 42.4 °F 36.5 °F 29.83 in NNE 2.0 mph 7.0 mph 79 % 0.00 in
12:15 43.0 °F 36.9 °F 29.82 in North 1.0 mph 5.0 mph 79 % 0.00 in
12:30 43.2 °F 36.7 °F 29.82 in NNW 2.0 mph 6.0 mph 78 % 0.00 in
12:45 43.3 °F 37.0 °F 29.83 in NNW 1.0 mph 7.0 mph 78 % 0.00 in
13:00 43.0 °F 36.7 °F 29.84 in North 2.0 mph 6.0 mph 78 % 0.00 in
13:15 43.0 °F 37.6 °F 29.84 in NNE 2.0 mph 5.0 mph 81 % 0.00 in
13:30 44.1 °F 37.4 °F 29.84 in NE 1.0 mph 4.0 mph 77 % 0.00 in
13:45 45.0 °F 37.4 °F 29.85 in North 2.0 mph 5.0 mph 75 % 0.00 in
14:00 45.1 °F 37.9 °F 29.85 in North 1.0 mph 4.0 mph 76 % 0.00 in
14:15 45.3 °F 37.8 °F 29.85 in NNW 1.0 mph 6.0 mph 75 % 0.00 in
14:30 46.8 °F 39.0 °F 29.85 in NNE 2.0 mph 6.0 mph 74 % 0.00 in
14:45 47.8 °F 38.3 °F 29.85 in NNE 2.0 mph 5.0 mph 69 % 0.00 in
15:00 48.4 °F 38.7 °F 29.85 in North 2.0 mph 6.0 mph 69 % 0.00 in
15:15 48.9 °F 38.1 °F 29.84 in North 1.0 mph 5.0 mph 66 % 0.00 in
15:30 49.1 °F 39.0 °F 29.84 in NNW 2.0 mph 6.0 mph 68 % 0.00 in
15:45 49.6 °F 38.3 °F 29.84 in North 2.0 mph 5.0 mph 65 % 0.00 in
16:00 50.4 °F 39.9 °F 29.84 in North 2.0 mph 5.0 mph 67 % 0.00 in
16:15 50.7 °F 37.8 °F 29.84 in NNW 1.0 mph 6.0 mph 61 % 0.00 in
16:30 51.4 °F 39.2 °F 29.84 in NE 1.0 mph 4.0 mph 63 % 0.00 in
16:45 52.2 °F 37.4 °F 29.83 in Calm   4.0 mph 57 % 0.00 in
17:00 51.6 °F 36.9 °F 29.84 in NNE 1.0 mph 5.0 mph 57 % 0.00 in
17:15 52.2 °F 36.5 °F 29.84 in NE 1.0 mph 5.0 mph 55 % 0.00 in
17:30 52.0 °F 36.9 °F 29.83 in NNW 1.0 mph 7.0 mph 56 % 0.00 in
17:45 52.5 °F 36.3 °F 29.83 in North 2.0 mph 6.0 mph 54 % 0.00 in
18:00 52.5 °F 35.8 °F 29.83 in Calm   3.0 mph 53 % 0.00 in
18:15 52.5 °F 35.4 °F 29.84 in NNW 2.0 mph 6.0 mph 52 % 0.00 in
18:30 52.2 °F 33.1 °F 29.84 in North 2.0 mph 9.0 mph 48 % 0.00 in
18:45 52.0 °F 34.3 °F 29.84 in NNE 1.0 mph 4.0 mph 51 % 0.00 in
19:00 51.6 °F 33.6 °F 29.84 in North 1.0 mph 4.0 mph 50 % 0.00 in
19:15 51.6 °F 35.6 °F 29.84 in Calm   4.0 mph 54 % 0.00 in
19:30 52.3 °F 36.7 °F 29.83 in Calm     55 % 0.00 in
19:45 52.3 °F 36.7 °F 29.83 in Calm   1.0 mph 55 % 0.00 in
20:00 52.2 °F 37.4 °F 29.83 in Calm   1.0 mph 57 % 0.00 in
20:15 51.4 °F 37.0 °F 29.83 in Calm   1.0 mph 58 % 0.00 in
20:30 51.1 °F 37.2 °F 29.83 in Calm     59 % 0.00 in
20:45 50.5 °F 35.4 °F 29.83 in Calm     56 % 0.00 in
21:00 49.6 °F 35.8 °F 29.83 in Calm     59 % 0.00 in
21:15 48.7 °F 36.0 °F 29.83 in Calm     61 % 0.00 in
21:30 48.0 °F 34.7 °F 29.83 in Calm     60 % 0.00 in
21:45 47.5 °F 33.8 °F 29.83 in Calm     59 % 0.00 in
22:00 46.9 °F 36.1 °F 29.83 in Calm     66 % 0.00 in
22:15 45.5 °F 36.7 °F 29.84 in Calm     71 % 0.00 in
22:30 43.7 °F 36.3 °F 29.84 in Calm     75 % 0.00 in
22:45 42.1 °F 35.2 °F 29.84 in Calm     77 % 0.00 in
23:00 40.5 °F 34.7 °F 29.84 in Calm     80 % 0.00 in
23:15 39.2 °F 33.8 °F 29.85 in Calm     81 % 0.00 in
23:30 38.3 °F 33.3 °F 29.85 in Calm     82 % 0.00 in
23:45 37.4 °F 32.7 °F 29.85 in Calm     83 % 0.00 in
Esan sääasema
Terveisin Weather Underground - 2.75 mb

Alkuperäinen skripti  Jim McMurry - jmcmurry@mwt.net Sovitettu myös templatelle  Wim van der Kuil - Leuven-Template.eu

Laitteet joita käytämme:

Sääasema
Davis VP2

Sääasemaohjelma
Cumulus

Sääaseman tietokone
Asus EeePC

Palveluntarjoaja
Suncomet

Davis VP2

Cumulus

Asus EeePC

Suncomet